createdAt,value
2019-01-28T00:01:40.106Z,51.67
2019-01-28T00:04:09.548Z,55.63
2019-01-28T00:06:38.994Z,70.40
2019-01-28T00:09:08.641Z,59.83
2019-01-28T00:11:38.103Z,55.27
2019-01-28T00:14:07.940Z,68.90
2019-01-28T00:16:37.245Z,68.83
2019-01-28T00:19:06.836Z,38.00
2019-01-28T00:21:36.167Z,50.97
2019-01-28T00:24:06.021Z,76.67
2019-01-28T00:26:35.362Z,70.13
2019-01-28T00:29:05.313Z,65.00
2019-01-28T00:31:34.723Z,69.27
2019-01-28T00:34:04.549Z,61.00
2019-01-28T00:36:35.678Z,66.47
2019-01-28T00:39:08.373Z,76.27
2019-01-28T00:41:37.718Z,62.53
2019-01-28T00:44:07.118Z,64.70
2019-01-28T00:46:36.590Z,45.70
2019-01-28T00:49:05.937Z,56.93
2019-01-28T00:51:35.386Z,70.60
2019-01-28T00:54:04.930Z,69.17
2019-01-28T00:56:34.326Z,67.10
2019-01-28T00:59:03.797Z,66.40
2019-01-28T01:01:33.151Z,73.33
2019-01-28T01:04:02.639Z,63.20
2019-01-28T01:06:32.039Z,67.97
2019-01-28T01:09:01.670Z,70.73
2019-01-28T01:11:31.057Z,74.67
2019-01-28T01:14:00.457Z,74.00
2019-01-28T01:16:30.106Z,67.80
2019-01-28T01:18:59.462Z,63.93
2019-01-28T01:21:28.866Z,63.97
2019-01-28T01:23:58.307Z,63.50
2019-01-28T01:26:27.682Z,65.67
2019-01-28T01:28:57.138Z,62.53
2019-01-28T01:31:26.666Z,70.83
2019-01-28T01:33:56.086Z,61.50
2019-01-28T01:36:25.491Z,70.93
2019-01-28T01:38:54.945Z,72.80
2019-01-28T01:41:24.282Z,67.70
2019-01-28T01:43:53.877Z,72.33
2019-01-28T01:46:23.325Z,71.63
2019-01-28T01:48:52.697Z,67.97
2019-01-28T01:51:22.140Z,52.43
2019-01-28T01:53:51.493Z,74.80
2019-01-28T01:56:21.075Z,72.20
2019-01-28T01:58:50.399Z,53.80
2019-01-28T02:01:19.809Z,77.27
2019-01-28T02:03:49.262Z,61.30
2019-01-28T02:06:18.623Z,63.87
2019-01-28T02:08:48.086Z,71.40
2019-01-28T02:11:17.420Z,65.50
2019-01-28T02:13:46.869Z,69.87
2019-01-28T02:16:16.226Z,69.87
2019-01-28T02:18:45.670Z,60.13
2019-01-28T02:21:15.069Z,63.30
2019-01-28T02:23:44.474Z,69.03
2019-01-28T02:26:13.862Z,67.93
2019-01-28T02:28:43.222Z,72.63
2019-01-28T02:31:12.677Z,61.80
2019-01-28T02:33:42.033Z,65.67
2019-01-28T02:36:11.499Z,69.90
2019-01-28T02:38:40.790Z,68.20
2019-01-28T02:41:10.230Z,70.20
2019-01-28T02:43:39.684Z,71.07
2019-01-28T02:46:09.083Z,65.63
2019-01-28T02:48:38.515Z,60.27
2019-01-28T02:51:08.017Z,67.23
2019-01-28T02:53:37.497Z,60.23
2019-01-28T02:56:06.959Z,65.23
2019-01-28T02:58:36.431Z,65.40
2019-01-28T03:01:05.814Z,62.10
2019-01-28T03:03:35.263Z,66.30
2019-01-28T03:06:04.924Z,50.37
2019-01-28T03:08:34.265Z,61.60
2019-01-28T03:11:03.712Z,67.10
2019-01-28T03:13:33.062Z,64.17
2019-01-28T03:16:02.880Z,59.30
2019-01-28T03:18:32.288Z,63.60
2019-01-28T03:21:01.660Z,68.97
2019-01-28T03:23:31.282Z,65.47
2019-01-28T03:26:00.691Z,66.13
2019-01-28T03:28:30.086Z,55.33
2019-01-28T03:30:59.564Z,69.63
2019-01-28T03:33:28.912Z,68.93
2019-01-28T03:35:58.314Z,69.07
2019-01-28T03:38:27.788Z,56.53
2019-01-28T03:40:57.101Z,66.93
2019-01-28T03:43:26.563Z,67.53
2019-01-28T03:45:56.044Z,64.17
2019-01-28T03:48:25.411Z,65.93
2019-01-28T03:50:54.778Z,73.57
2019-01-28T03:53:24.274Z,67.27
2019-01-28T03:55:53.738Z,65.07
2019-01-28T03:58:23.127Z,70.43
2019-01-28T04:00:52.735Z,67.80
2019-01-28T04:03:22.122Z,48.43
2019-01-28T04:05:51.530Z,64.50
2019-01-28T04:08:20.985Z,62.83
2019-01-28T04:10:50.326Z,64.73
2019-01-28T04:13:19.790Z,64.07
2019-01-28T04:15:49.154Z,59.67
2019-01-28T04:18:18.596Z,66.13
2019-01-28T04:20:47.930Z,62.07
2019-01-28T04:23:17.401Z,51.17
2019-01-28T04:25:46.758Z,63.90
2019-01-28T04:28:16.215Z,55.80
2019-01-28T04:30:45.649Z,52.10
2019-01-28T04:33:15.190Z,44.13
2019-01-28T04:35:44.555Z,63.60
2019-01-28T04:38:14.042Z,54.03
2019-01-28T04:40:43.367Z,44.23
2019-01-28T04:43:12.967Z,66.67
2019-01-28T04:45:42.361Z,76.40
2019-01-28T04:48:11.811Z,61.47
2019-01-28T04:50:41.346Z,60.70
2019-01-28T04:53:10.694Z,66.27
2019-01-28T04:55:40.087Z,58.50
2019-01-28T04:58:09.694Z,58.77
2019-01-28T05:00:39.094Z,60.83
2019-01-28T05:03:08.563Z,52.87
2019-01-28T05:05:37.889Z,66.80
2019-01-28T05:08:07.302Z,49.67
2019-01-28T05:10:36.738Z,55.43
2019-01-28T05:13:06.090Z,61.13
2019-01-28T05:15:35.458Z,61.00
2019-01-28T05:18:04.899Z,59.10
2019-01-28T05:20:34.326Z,65.17
2019-01-28T05:23:03.734Z,61.43
2019-01-28T05:25:33.311Z,67.47
2019-01-28T05:28:02.718Z,64.43
2019-01-28T05:30:32.183Z,58.00
2019-01-28T05:33:01.522Z,60.03
2019-01-28T05:35:30.925Z,60.37
2019-01-28T05:38:00.376Z,58.27
2019-01-28T05:40:29.710Z,62.03
2019-01-28T05:42:59.170Z,65.90
2019-01-28T05:45:28.530Z,72.40
2019-01-28T05:47:58.233Z,61.87
2019-01-28T05:50:29.272Z,60.87
2019-01-28T05:52:59.086Z,60.57
2019-01-28T05:55:28.492Z,62.17
2019-01-28T05:57:57.905Z,60.77
2019-01-28T06:00:47.215Z,58.50
2019-01-28T06:03:16.724Z,67.67
2019-01-28T06:05:46.112Z,57.63
2019-01-28T06:08:15.573Z,59.20
2019-01-28T06:10:44.992Z,58.00
2019-01-28T06:13:14.442Z,64.77
2019-01-28T06:15:43.778Z,64.90
2019-01-28T06:18:13.250Z,71.80
2019-01-28T06:20:42.704Z,63.43
2019-01-28T06:23:12.233Z,63.20
2019-01-28T06:25:41.665Z,63.83
2019-01-28T06:28:11.117Z,60.60
2019-01-28T06:30:40.540Z,66.73
2019-01-28T06:33:10.094Z,68.10
2019-01-28T06:35:41.842Z,69.43
2019-01-28T06:38:11.190Z,71.73
2019-01-28T06:40:40.608Z,71.90
2019-01-28T06:43:10.145Z,76.73
2019-01-28T06:45:39.634Z,70.40
2019-01-28T06:48:09.110Z,75.20
2019-01-28T06:50:38.582Z,66.27
2019-01-28T06:53:08.155Z,69.50
2019-01-28T06:55:37.678Z,59.73
2019-01-28T06:58:07.123Z,60.73
2019-01-28T07:00:37.277Z,59.07
2019-01-28T07:03:08.028Z,57.93
2019-01-28T07:05:37.990Z,55.93
2019-01-28T07:08:07.603Z,62.63
2019-01-28T07:10:37.006Z,65.13
2019-01-28T07:13:06.802Z,54.87
2019-01-28T07:15:36.350Z,56.20
2019-01-28T07:18:05.788Z,56.40
2019-01-28T07:20:35.186Z,60.70
2019-01-28T07:23:05.203Z,56.97
2019-01-28T07:25:34.611Z,66.77
2019-01-28T07:28:04.304Z,63.70
2019-01-28T07:30:36.309Z,66.37
2019-01-28T07:33:06.234Z,55.87
2019-01-28T07:35:35.751Z,41.07
2019-01-28T07:38:05.634Z,63.57
2019-01-28T07:40:35.078Z,60.63
2019-01-28T07:43:04.825Z,64.33
2019-01-28T07:45:44.581Z,62.63
2019-01-28T07:48:07.895Z,61.23
2019-01-28T07:50:37.302Z,58.03
2019-01-28T07:53:07.244Z,62.80
2019-01-28T07:55:36.651Z,62.40
2019-01-28T07:58:06.663Z,60.23
2019-01-28T08:00:36.148Z,61.83
2019-01-28T08:03:06.181Z,56.43
2019-01-28T08:05:35.838Z,57.43
2019-01-28T08:08:06.242Z,62.87
2019-01-28T08:10:35.638Z,58.90
2019-01-28T08:13:05.800Z,61.60
2019-01-28T08:15:35.257Z,59.10
2019-01-28T08:18:10.522Z,52.63
2019-01-28T08:20:36.426Z,48.60
2019-01-28T08:23:06.142Z,57.30
2019-01-28T08:25:35.595Z,56.30
2019-01-28T08:28:05.855Z,60.97
2019-01-28T08:30:37.809Z,54.90
2019-01-28T08:33:07.306Z,56.73
2019-01-28T08:35:38.114Z,58.37
2019-01-28T08:38:07.575Z,54.83
2019-01-28T08:41:06.016Z,50.63
2019-01-28T08:43:35.478Z,52.20
2019-01-28T08:46:04.844Z,51.03
2019-01-28T08:48:34.314Z,53.00
2019-01-28T08:51:03.742Z,57.13
2019-01-28T08:53:33.293Z,52.27
2019-01-28T08:56:02.822Z,53.17
2019-01-28T08:58:32.207Z,51.17
2019-01-28T09:01:01.666Z,48.87
2019-01-28T09:03:31.158Z,47.07
2019-01-28T09:06:00.544Z,51.03
2019-01-28T09:08:29.980Z,44.50
2019-01-28T09:10:59.421Z,51.27
2019-01-28T09:13:28.945Z,45.57
2019-01-28T09:15:58.359Z,46.53
2019-01-28T09:18:27.871Z,53.67
2019-01-28T09:20:57.336Z,37.00
2019-01-28T09:23:26.677Z,46.27
2019-01-28T09:25:56.066Z,52.13
2019-01-28T09:28:25.578Z,54.10
2019-01-28T09:30:55.015Z,53.57
2019-01-28T09:33:24.399Z,54.00
2019-01-28T09:35:53.845Z,58.17
2019-01-28T09:38:23.255Z,68.77
2019-01-28T09:40:52.657Z,55.80
2019-01-28T09:43:22.074Z,53.13
2019-01-28T09:45:51.495Z,45.97
2019-01-28T09:48:21.200Z,46.67
2019-01-28T09:50:50.643Z,52.10
2019-01-28T09:53:20.022Z,49.30
2019-01-28T09:55:49.694Z,50.80
2019-01-28T09:58:19.126Z,59.20
2019-01-28T10:00:50.508Z,51.07
2019-01-28T10:03:20.013Z,59.67
2019-01-28T10:05:49.508Z,46.87
2019-01-28T10:08:19.091Z,51.97
2019-01-28T10:10:48.698Z,44.40
2019-01-28T10:13:18.142Z,51.30
2019-01-28T10:15:47.499Z,47.20
2019-01-28T10:18:17.226Z,49.40
2019-01-28T10:20:48.409Z,54.20
2019-01-28T10:23:17.906Z,52.70
2019-01-28T10:25:47.761Z,52.70
2019-01-28T10:28:17.214Z,55.07
2019-01-28T10:30:47.273Z,56.57
2019-01-28T10:33:16.703Z,49.03
2019-01-28T10:35:47.097Z,52.90
2019-01-28T10:38:17.024Z,47.07
2019-01-28T10:40:47.195Z,51.77
2019-01-28T10:43:16.678Z,49.40
2019-01-28T10:45:47.729Z,46.20
2019-01-28T10:48:17.779Z,49.60
2019-01-28T10:50:47.324Z,46.07
2019-01-28T10:53:16.713Z,47.13
2019-01-28T10:55:46.503Z,47.80
2019-01-28T10:58:15.914Z,47.90
2019-01-28T11:00:48.159Z,50.37
2019-01-28T11:03:22.654Z,51.60
2019-01-28T11:05:52.171Z,51.53
2019-01-28T11:08:21.621Z,47.77
2019-01-28T11:10:51.163Z,50.57
2019-01-28T11:13:20.532Z,51.37
2019-01-28T11:15:50.157Z,48.13
2019-01-28T11:18:22.674Z,52.20
2019-01-28T11:20:52.301Z,53.80
2019-01-28T11:23:21.713Z,55.00
2019-01-28T11:25:51.173Z,50.87
2019-01-28T11:28:20.759Z,58.23
2019-01-28T11:30:57.677Z,52.27
2019-01-28T11:33:27.272Z,53.30
2019-01-28T11:36:04.785Z,59.23
2019-01-28T11:38:28.361Z,54.20
2019-01-28T11:40:57.959Z,60.67
2019-01-28T11:43:27.635Z,58.87
2019-01-28T11:46:05.512Z,55.47
2019-01-28T11:48:34.882Z,56.17
2019-01-28T11:51:04.569Z,58.30
2019-01-28T11:53:33.992Z,64.73
2019-01-28T11:56:03.626Z,64.17
2019-01-28T11:58:33.055Z,64.20
2019-01-28T12:01:27.122Z,59.97
2019-01-28T12:03:56.513Z,55.03
2019-01-28T12:06:26.066Z,60.90
2019-01-28T12:08:55.510Z,53.00
2019-01-28T12:11:24.869Z,54.63
2019-01-28T12:13:54.288Z,60.23
2019-01-28T12:16:23.754Z,58.30
2019-01-28T12:18:53.088Z,63.30
2019-01-28T12:21:22.658Z,62.97
2019-01-28T12:23:51.986Z,66.37
2019-01-28T12:26:21.399Z,71.33
2019-01-28T12:28:50.865Z,62.60
2019-01-28T12:31:20.230Z,76.20
2019-01-28T12:33:49.654Z,73.97
2019-01-28T12:36:19.014Z,69.10
2019-01-28T12:38:50.060Z,69.77
2019-01-28T12:41:19.701Z,74.10
2019-01-28T12:43:49.071Z,76.50
2019-01-28T12:46:18.661Z,75.33
2019-01-28T12:48:48.189Z,74.73
2019-01-28T12:51:17.614Z,66.57
2019-01-28T12:53:46.980Z,70.90
2019-01-28T12:56:16.579Z,70.43
2019-01-28T12:58:45.994Z,66.00
2019-01-28T13:01:15.453Z,70.63
2019-01-28T13:03:44.890Z,69.13
2019-01-28T13:06:14.329Z,71.70
2019-01-28T13:08:44.565Z,77.33
2019-01-28T13:11:14.219Z,72.43
2019-01-28T13:13:44.030Z,74.47
2019-01-28T13:16:13.484Z,74.57
2019-01-28T13:18:42.948Z,87.00
2019-01-28T13:21:12.363Z,76.70
2019-01-28T13:23:42.957Z,83.87
2019-01-28T13:26:12.458Z,74.93
2019-01-28T13:28:41.910Z,68.70
2019-01-28T13:31:11.271Z,80.60
2019-01-28T13:33:40.719Z,90.77
2019-01-28T13:36:10.075Z,73.07
2019-01-28T13:38:39.549Z,73.20
2019-01-28T13:41:08.887Z,69.60
2019-01-28T13:43:38.342Z,69.13
2019-01-28T13:46:07.746Z,72.10
2019-01-28T13:48:37.231Z,69.20
2019-01-28T13:51:06.660Z,73.30
2019-01-28T13:53:36.102Z,67.77
2019-01-28T13:56:05.503Z,65.13
2019-01-28T13:58:34.989Z,64.23
2019-01-28T14:01:05.314Z,62.93
2019-01-28T14:03:34.702Z,66.60
2019-01-28T14:06:04.524Z,65.27
2019-01-28T14:08:33.849Z,66.00
2019-01-28T14:11:03.265Z,74.20
2019-01-28T14:13:32.666Z,77.97
2019-01-28T14:16:02.041Z,73.20
2019-01-28T14:18:31.574Z,78.03
2019-01-28T14:21:03.786Z,80.40
2019-01-28T14:23:33.293Z,82.80
2019-01-28T14:26:02.618Z,83.20
2019-01-28T14:28:32.012Z,93.30
2019-01-28T14:31:01.480Z,74.87
2019-01-28T14:33:31.013Z,88.57
2019-01-28T14:36:23.629Z,93.87
2019-01-28T14:38:53.279Z,93.03
2019-01-28T14:41:22.661Z,85.13
2019-01-28T14:43:52.187Z,85.40
2019-01-28T14:46:21.621Z,97.27
2019-01-28T14:48:51.290Z,94.93
2019-01-28T14:51:20.722Z,99.00
2019-01-28T14:53:50.122Z,102.47
2019-01-28T14:56:19.701Z,105.07
2019-01-28T14:58:49.118Z,101.57
2019-01-28T15:01:18.873Z,108.23
2019-01-28T15:03:48.293Z,106.40
2019-01-28T15:06:17.691Z,104.93
2019-01-28T15:08:47.144Z,108.23
2019-01-28T15:11:16.619Z,111.33
2019-01-28T15:13:46.097Z,106.53
2019-01-28T15:16:15.456Z,111.33
2019-01-28T15:18:44.960Z,105.27
2019-01-28T15:21:14.363Z,112.17
2019-01-28T15:23:43.754Z,103.47
2019-01-28T15:26:13.211Z,111.87
2019-01-28T15:28:42.748Z,113.63
2019-01-28T15:31:12.446Z,117.03
2019-01-28T15:33:41.879Z,130.13
2019-01-28T15:36:11.280Z,121.00
2019-01-28T15:38:40.808Z,131.77
2019-01-28T15:41:10.209Z,129.93
2019-01-28T15:43:39.660Z,127.57
2019-01-28T15:46:09.113Z,132.60
2019-01-28T15:48:38.482Z,131.03
2019-01-28T15:51:08.001Z,137.47
2019-01-28T15:53:37.585Z,143.70
2019-01-28T15:56:07.180Z,135.43
2019-01-28T15:58:36.508Z,144.50
2019-01-28T16:01:06.450Z,130.40
2019-01-28T16:03:35.910Z,136.40
2019-01-28T16:06:05.682Z,134.63
2019-01-28T16:08:35.119Z,136.13
2019-01-28T16:11:04.838Z,136.90
2019-01-28T16:13:34.233Z,135.73
2019-01-28T16:16:03.897Z,132.20
2019-01-28T16:18:34.369Z,138.13
2019-01-28T16:21:04.486Z,140.97
2019-01-28T16:23:33.874Z,131.50
2019-01-28T16:26:03.367Z,143.57
2019-01-28T16:28:32.866Z,145.27
2019-01-28T16:31:02.411Z,133.77
2019-01-28T16:33:31.822Z,154.70
2019-01-28T16:36:01.263Z,148.40
2019-01-28T16:38:30.630Z,163.37
2019-01-28T16:41:00.215Z,163.57
2019-01-28T16:43:29.813Z,162.27
2019-01-28T16:45:59.231Z,175.73
2019-01-28T16:48:28.702Z,171.77
2019-01-28T16:50:58.096Z,167.07
2019-01-28T16:53:27.729Z,169.30
2019-01-28T16:55:57.138Z,181.67
2019-01-28T16:58:26.578Z,174.87
2019-01-28T17:00:56.072Z,180.60
2019-01-28T17:03:25.503Z,173.07
2019-01-28T17:05:54.960Z,173.83
2019-01-28T17:08:24.415Z,176.70
2019-01-28T17:10:53.758Z,156.90
2019-01-28T17:13:23.289Z,157.53
2019-01-28T17:15:52.697Z,161.27
2019-01-28T17:18:22.156Z,164.53
2019-01-28T17:20:51.542Z,163.30
2019-01-28T17:23:21.035Z,169.50
2019-01-28T17:25:50.378Z,166.77
2019-01-28T17:28:19.800Z,169.03
2019-01-28T17:30:50.981Z,164.73
2019-01-28T17:33:20.432Z,173.97
2019-01-28T17:35:49.877Z,169.67
2019-01-28T17:38:19.277Z,178.70
2019-01-28T17:40:48.719Z,163.30
2019-01-28T17:43:44.282Z,179.63
2019-01-28T17:46:13.723Z,166.00
2019-01-28T17:48:43.040Z,179.93
2019-01-28T17:51:12.638Z,179.60
2019-01-28T17:53:41.986Z,187.13
2019-01-28T17:56:11.713Z,194.80
2019-01-28T17:58:41.379Z,187.33
2019-01-28T18:01:10.777Z,185.70
2019-01-28T18:03:40.269Z,200.50
2019-01-28T18:06:09.870Z,184.73
2019-01-28T18:08:39.295Z,181.40
2019-01-28T18:11:08.629Z,186.87
2019-01-28T18:13:38.190Z,176.30
2019-01-28T18:16:07.698Z,176.20
2019-01-28T18:18:37.136Z,183.27
2019-01-28T18:21:06.875Z,186.00
2019-01-28T18:23:48.258Z,191.63
2019-01-28T18:26:17.691Z,186.70
2019-01-28T18:28:47.161Z,174.80
2019-01-28T18:31:16.492Z,178.27
2019-01-28T18:33:45.938Z,191.43
2019-01-28T18:36:15.595Z,182.30
2019-01-28T18:38:45.201Z,184.30
2019-01-28T18:41:14.679Z,190.93
2019-01-28T18:43:44.081Z,189.70
2019-01-28T18:46:13.505Z,203.57
2019-01-28T18:48:42.987Z,189.03
2019-01-28T18:51:12.541Z,180.60
2019-01-28T18:53:42.122Z,178.87
2019-01-28T18:56:11.658Z,188.47
2019-01-28T18:58:41.057Z,183.40
2019-01-28T19:01:12.197Z,186.87
2019-01-28T19:03:41.830Z,193.20
2019-01-28T19:06:21.153Z,183.60
2019-01-28T19:09:04.978Z,182.63
2019-01-28T19:11:49.822Z,206.63
2019-01-28T19:14:50.269Z,202.73
2019-01-28T19:17:26.435Z,190.20
2019-01-28T19:20:05.401Z,199.37
2019-01-28T19:22:34.943Z,191.93
2019-01-28T19:25:04.953Z,198.50
2019-01-28T19:27:34.366Z,206.93
2019-01-28T19:30:04.898Z,194.80
2019-01-28T19:32:34.378Z,209.77
2019-01-28T19:35:03.932Z,193.63
2019-01-28T19:37:33.564Z,203.70
2019-01-28T19:40:05.763Z,200.60
2019-01-28T19:42:39.569Z,209.47
2019-01-28T19:45:12.901Z,199.20
2019-01-28T19:47:43.728Z,210.57
2019-01-28T19:50:16.315Z,202.40
2019-01-28T19:52:48.002Z,211.13
2019-01-28T19:55:17.815Z,217.13
2019-01-28T19:57:47.139Z,193.40
2019-01-28T20:00:22.141Z,198.73
2019-01-28T20:02:51.690Z,199.93
2019-01-28T20:05:21.078Z,197.27
2019-01-28T20:07:50.537Z,209.20
2019-01-28T20:10:19.916Z,204.00
2019-01-28T20:12:49.429Z,202.23
2019-01-28T20:15:20.058Z,211.27
2019-01-28T20:17:49.705Z,203.27
2019-01-28T20:20:19.833Z,210.10
2019-01-28T20:22:49.137Z,206.37
2019-01-28T20:25:19.550Z,216.30
2019-01-28T20:27:49.183Z,204.30
2019-01-28T20:30:26.419Z,217.73
2019-01-28T20:32:55.807Z,206.87
2019-01-28T20:35:26.421Z,206.97
2019-01-28T20:37:55.862Z,228.57
2019-01-28T20:40:25.262Z,247.73
2019-01-28T20:42:54.684Z,228.70
2019-01-28T20:45:24.856Z,228.13
2019-01-28T20:47:55.605Z,236.00
2019-01-28T20:50:26.593Z,236.57
2019-01-28T20:52:56.060Z,226.63
2019-01-28T20:55:25.879Z,235.70
2019-01-28T20:57:55.389Z,234.60
2019-01-28T21:00:26.651Z,252.27
2019-01-28T21:02:56.102Z,237.60
2019-01-28T21:05:25.933Z,251.50
2019-01-28T21:07:55.432Z,253.07
2019-01-28T21:10:25.349Z,238.13
2019-01-28T21:12:54.988Z,243.87
2019-01-28T21:15:24.867Z,249.97
2019-01-28T21:17:54.253Z,238.10
2019-01-28T21:20:24.003Z,231.03
2019-01-28T21:22:53.658Z,258.80
2019-01-28T21:25:26.444Z,266.97
2019-01-28T21:27:55.986Z,261.97
2019-01-28T21:30:27.979Z,250.90
2019-01-28T21:32:57.522Z,246.10
2019-01-28T21:36:04.211Z,252.00
2019-01-28T21:38:48.266Z,257.10
2019-01-28T21:41:17.809Z,216.00
2019-01-28T21:43:47.179Z,254.33
2019-01-28T21:46:16.636Z,255.40
2019-01-28T21:48:46.095Z,264.30
2019-01-28T21:51:15.533Z,204.63
2019-01-28T21:53:45.036Z,273.63
2019-01-28T21:56:14.421Z,168.53
2019-01-28T21:58:43.833Z,287.67
2019-01-28T22:01:13.465Z,290.43
2019-01-28T22:03:43.230Z,281.43
2019-01-28T22:06:12.711Z,277.70
2019-01-28T22:08:42.245Z,266.60
2019-01-28T22:11:11.734Z,316.03
2019-01-28T22:13:41.099Z,336.87
2019-01-28T22:16:10.561Z,339.67
2019-01-28T22:18:39.976Z,339.80
2019-01-28T22:21:13.261Z,279.73
2019-01-28T22:23:43.296Z,347.90
2019-01-28T22:26:12.698Z,378.57
2019-01-28T22:28:44.887Z,362.23
2019-01-28T22:31:15.138Z,185.80
2019-01-28T22:33:44.577Z,348.67
2019-01-28T22:36:13.972Z,255.53
2019-01-28T22:38:44.480Z,343.00
2019-01-28T22:41:14.483Z,365.77
2019-01-28T22:43:43.923Z,304.30
2019-01-28T22:46:13.395Z,373.73
2019-01-28T22:48:42.718Z,406.20
2019-01-28T22:51:12.114Z,315.13
2019-01-28T22:53:41.652Z,263.10
2019-01-28T22:56:11.031Z,328.17
2019-01-28T22:58:40.507Z,292.57
2019-01-28T23:01:31.506Z,357.00
2019-01-28T23:04:00.922Z,373.43
2019-01-28T23:06:30.316Z,341.40
2019-01-28T23:08:59.814Z,369.47
2019-01-28T23:11:29.137Z,323.83
2019-01-28T23:13:58.475Z,291.20
2019-01-28T23:16:27.922Z,328.53
2019-01-28T23:18:57.261Z,320.67
2019-01-28T23:21:26.679Z,284.30
2019-01-28T23:23:56.095Z,287.90
2019-01-28T23:26:25.658Z,286.83
2019-01-28T23:28:55.028Z,263.17
2019-01-28T23:31:24.474Z,280.40
2019-01-28T23:33:53.926Z,258.50
2019-01-28T23:36:23.302Z,268.13
2019-01-28T23:38:52.762Z,257.70
2019-01-28T23:41:22.080Z,229.97
2019-01-28T23:43:51.542Z,218.27
2019-01-28T23:46:21.106Z,214.13
2019-01-28T23:48:50.540Z,190.83
2019-01-28T23:51:19.938Z,224.47
2019-01-28T23:53:49.352Z,212.07
2019-01-28T23:56:18.845Z,211.03
2019-01-28T23:58:48.247Z,230.00
